createdAt,value
2019-06-01T00:00:21.158Z,9.13
2019-06-01T00:02:56.020Z,9.03
2019-06-01T00:07:48.993Z,8.93
2019-06-01T00:10:17.745Z,8.50
2019-06-01T00:12:47.632Z,8.80
2019-06-01T00:15:16.806Z,9.60
2019-06-01T00:17:48.002Z,8.73
2019-06-01T00:20:16.620Z,8.85
2019-06-01T00:22:45.520Z,9.35
2019-06-01T00:25:16.131Z,9.20
2019-06-01T00:27:46.731Z,9.40
2019-06-01T00:30:26.693Z,9.10
2019-06-01T00:32:47.213Z,9.23
2019-06-01T00:35:16.155Z,10.28
2019-06-01T00:37:45.638Z,10.43
2019-06-01T00:40:14.478Z,9.45
2019-06-01T00:42:44.029Z,9.65
2019-06-01T00:45:12.651Z,9.73
2019-06-01T00:47:42.672Z,10.08
2019-06-01T00:50:11.460Z,10.97
2019-06-01T00:52:40.173Z,9.00
2019-06-01T00:55:08.823Z,9.70
2019-06-01T00:57:37.609Z,10.80
2019-06-01T01:00:06.843Z,9.88
2019-06-01T01:02:35.910Z,10.53
2019-06-01T01:05:14.757Z,10.88
2019-06-01T01:07:44.546Z,9.33
2019-06-01T01:10:13.705Z,11.08
2019-06-01T01:13:00.319Z,11.22
2019-06-01T01:15:31.055Z,10.85
2019-06-01T01:18:00.102Z,11.18
2019-06-01T01:20:29.037Z,10.58
2019-06-01T01:22:57.617Z,11.80
2019-06-01T01:25:28.196Z,12.13
2019-06-01T01:27:59.319Z,12.37
2019-06-01T01:30:28.072Z,11.33
2019-06-01T01:32:59.083Z,12.53
2019-06-01T01:35:27.556Z,12.98
2019-06-01T01:37:58.160Z,11.35
2019-06-01T01:40:27.862Z,12.23
2019-06-01T01:42:56.625Z,12.70
2019-06-01T01:45:25.552Z,12.50
2019-06-01T01:47:55.078Z,11.85
2019-06-01T01:50:26.970Z,12.98
2019-06-01T01:52:56.824Z,12.82
2019-06-01T01:55:26.272Z,12.65
2019-06-01T01:57:55.489Z,13.30
2019-06-01T02:00:41.010Z,13.10
2019-06-01T02:03:13.306Z,13.95
2019-06-01T02:05:42.513Z,15.48
2019-06-01T02:08:11.591Z,13.98
2019-06-01T02:10:40.695Z,14.20
2019-06-01T02:13:09.483Z,14.95
2019-06-01T02:15:41.071Z,14.03
2019-06-01T02:18:09.930Z,14.00
2019-06-01T02:20:38.277Z,16.32
2019-06-01T02:23:06.979Z,16.30
2019-06-01T02:28:06.216Z,14.23
2019-06-01T02:30:35.196Z,15.32
2019-06-01T02:33:04.819Z,16.45
2019-06-01T02:35:33.701Z,16.33
2019-06-01T02:38:03.169Z,16.95
2019-06-01T02:40:32.985Z,17.37
2019-06-01T02:43:03.691Z,16.55
2019-06-01T02:45:33.076Z,14.87
2019-06-01T02:48:03.668Z,15.90
2019-06-01T02:50:32.390Z,17.32
2019-06-01T02:53:01.801Z,14.78
2019-06-01T02:55:30.331Z,17.77
2019-06-01T02:58:00.335Z,17.27
2019-06-01T03:01:56.705Z,17.98
2019-06-01T03:04:15.717Z,17.65
2019-06-01T03:06:44.407Z,17.95
2019-06-01T03:09:13.292Z,17.77
2019-06-01T03:11:42.298Z,19.77
2019-06-01T03:14:12.297Z,19.52
2019-06-01T03:19:12.765Z,17.40
2019-06-01T03:24:13.265Z,21.62
2019-06-01T03:26:46.389Z,21.45
2019-06-01T03:29:19.248Z,19.32
2019-06-01T03:31:48.417Z,20.80
2019-06-01T03:34:17.024Z,19.05
2019-06-01T03:36:45.826Z,21.60
2019-06-01T03:39:14.503Z,20.50
2019-06-01T03:41:43.213Z,20.85
2019-06-01T03:44:13.026Z,20.02
2019-06-01T03:46:41.785Z,19.93
2019-06-01T03:49:11.612Z,19.25
2019-06-01T03:54:10.123Z,19.48
2019-06-01T03:56:38.982Z,19.77
2019-06-01T03:59:09.328Z,19.40
2019-06-01T04:01:37.808Z,21.05
2019-06-01T04:04:07.152Z,19.77
2019-06-01T04:06:35.895Z,22.77
2019-06-01T04:09:07.744Z,20.00
2019-06-01T04:11:36.682Z,20.48
2019-06-01T04:14:05.734Z,22.65
2019-06-01T04:16:34.664Z,21.97
2019-06-01T04:19:06.000Z,22.55
2019-06-01T04:21:35.112Z,20.65
2019-06-01T04:24:04.053Z,22.27
2019-06-01T04:26:32.757Z,23.02
2019-06-01T04:29:04.877Z,20.85
2019-06-01T04:31:35.840Z,21.90
2019-06-01T04:34:04.587Z,22.25
2019-06-01T04:36:33.317Z,23.30
2019-06-01T04:39:03.565Z,23.50
2019-06-01T04:41:32.247Z,22.65
2019-06-01T04:44:02.010Z,25.05
2019-06-01T04:46:30.527Z,23.13
2019-06-01T04:48:59.038Z,24.15
2019-06-01T04:51:27.558Z,24.52
2019-06-01T04:53:56.602Z,24.43
2019-06-01T04:56:25.595Z,28.57
2019-06-01T04:58:54.400Z,24.65
2019-06-01T05:01:22.992Z,22.00
2019-06-01T05:03:51.665Z,21.82
2019-06-01T05:06:20.516Z,22.95
2019-06-01T05:08:49.073Z,21.48
2019-06-01T05:11:17.504Z,24.65
2019-06-01T05:13:46.400Z,23.52
2019-06-01T05:16:16.471Z,25.27
2019-06-01T05:18:45.055Z,23.20
2019-06-01T05:21:15.198Z,21.80
2019-06-01T05:23:43.898Z,21.70
2019-06-01T05:26:13.119Z,21.37
2019-06-01T05:28:41.897Z,21.57
2019-06-01T05:31:19.469Z,18.35
2019-06-01T05:33:45.420Z,21.77
2019-06-01T05:36:14.290Z,19.98
2019-06-01T05:38:42.859Z,16.57
2019-06-01T05:41:13.138Z,15.70
2019-06-01T05:43:41.717Z,15.65
2019-06-01T05:46:10.412Z,14.83
2019-06-01T05:48:38.888Z,17.95
2019-06-01T05:51:07.770Z,16.48
2019-06-01T05:53:36.161Z,18.37
2019-06-01T05:56:04.832Z,16.48
2019-06-01T05:58:33.264Z,16.32
2019-06-01T06:01:02.689Z,15.00
2019-06-01T06:03:39.893Z,13.20
2019-06-01T06:08:32.616Z,13.65
2019-06-01T06:11:03.383Z,14.85
2019-06-01T06:13:31.766Z,14.45
2019-06-01T06:16:00.476Z,15.80
2019-06-01T06:18:29.499Z,16.48
2019-06-01T06:20:57.990Z,15.15
2019-06-01T06:23:27.684Z,13.33
2019-06-01T06:25:56.514Z,14.05
2019-06-01T06:28:26.788Z,14.95
2019-06-01T06:30:55.365Z,14.25
2019-06-01T06:33:25.919Z,13.88
2019-06-01T06:38:24.662Z,13.08
2019-06-01T06:40:53.247Z,12.25
2019-06-01T06:43:28.875Z,13.35
2019-06-01T06:45:53.043Z,14.93
2019-06-01T06:48:23.345Z,12.35
2019-06-01T06:50:51.919Z,12.03
2019-06-01T06:53:29.654Z,10.85
2019-06-01T06:55:51.193Z,9.63
2019-06-01T06:58:21.034Z,11.50
2019-06-01T07:00:50.062Z,11.68
2019-06-01T07:03:18.918Z,11.68
2019-06-01T07:05:47.493Z,12.15
2019-06-01T07:08:16.266Z,9.75
2019-06-01T07:10:45.466Z,11.35
2019-06-01T07:13:14.393Z,11.83
2019-06-01T07:15:43.435Z,11.50
2019-06-01T07:20:43.594Z,11.75
2019-06-01T07:23:12.213Z,10.65
2019-06-01T07:25:41.900Z,8.75
2019-06-01T07:28:12.372Z,9.15
2019-06-01T07:30:50.380Z,9.73
2019-06-01T07:33:11.887Z,8.75
2019-06-01T07:35:42.438Z,8.93
2019-06-01T07:38:12.930Z,7.92
2019-06-01T07:40:41.653Z,8.18
2019-06-01T07:43:10.029Z,10.18
2019-06-01T07:45:38.860Z,9.10
2019-06-01T07:48:07.394Z,9.08
2019-06-01T07:50:35.840Z,9.58
2019-06-01T07:53:04.466Z,8.70
2019-06-01T07:55:33.144Z,7.60
2019-06-01T07:58:02.729Z,6.53
2019-06-01T08:00:31.114Z,6.33
2019-06-01T08:02:59.779Z,6.00
2019-06-01T08:05:28.228Z,7.17
2019-06-01T08:07:56.893Z,5.83
2019-06-01T08:10:26.510Z,6.45
2019-06-01T08:12:56.726Z,7.30
2019-06-01T08:15:25.744Z,7.15
2019-06-01T08:17:54.774Z,6.28
2019-06-01T08:20:24.008Z,6.20
2019-06-01T08:22:52.722Z,5.45
2019-06-01T08:25:22.143Z,5.35
2019-06-01T08:27:52.931Z,6.42
2019-06-01T08:30:22.579Z,5.42
2019-06-01T08:32:51.428Z,4.17
2019-06-01T08:35:20.147Z,4.17
2019-06-01T08:37:50.500Z,4.28
2019-06-01T08:40:21.032Z,5.08
2019-06-01T08:42:49.466Z,5.62
2019-06-01T08:45:18.763Z,5.72
2019-06-01T08:47:47.570Z,6.53
2019-06-01T08:50:16.439Z,5.92
2019-06-01T08:52:44.819Z,6.58
2019-06-01T08:55:13.405Z,5.33
2019-06-01T08:57:42.334Z,5.58
2019-06-01T09:00:11.317Z,5.20
2019-06-01T09:02:39.973Z,5.75
2019-06-01T09:05:23.354Z,6.15
2019-06-01T09:07:39.260Z,4.65
2019-06-01T09:10:09.519Z,5.00
2019-06-01T09:12:38.128Z,5.47
2019-06-01T09:15:07.898Z,4.58
2019-06-01T09:17:36.391Z,5.67
2019-06-01T09:20:05.611Z,4.90
2019-06-01T09:22:35.736Z,5.12
2019-06-01T09:25:05.112Z,5.15
2019-06-01T09:27:33.934Z,4.42
2019-06-01T09:30:03.575Z,4.00
2019-06-01T09:32:32.339Z,3.80
2019-06-01T09:35:01.199Z,3.87
2019-06-01T09:37:30.558Z,3.62
2019-06-01T09:40:01.030Z,3.62
2019-06-01T09:44:59.919Z,4.95
2019-06-01T09:47:29.073Z,4.50
2019-06-01T09:49:57.623Z,4.00
2019-06-01T09:52:27.301Z,4.50
2019-06-01T09:54:56.191Z,5.12
2019-06-01T09:57:24.939Z,4.92
2019-06-01T09:59:53.927Z,4.65
2019-06-01T10:02:22.609Z,4.20
2019-06-01T10:04:51.218Z,5.72
2019-06-01T10:07:19.744Z,7.37
2019-06-01T10:09:48.680Z,4.70
2019-06-01T10:12:17.483Z,4.10
2019-06-01T10:14:46.023Z,4.67
2019-06-01T10:17:15.206Z,4.72
2019-06-01T10:19:44.341Z,4.60
2019-06-01T10:22:13.154Z,4.00
2019-06-01T10:24:41.694Z,3.90
2019-06-01T10:27:10.711Z,4.72
2019-06-01T10:29:39.948Z,4.37
2019-06-01T10:32:10.898Z,3.67
2019-06-01T10:34:39.985Z,3.83
2019-06-01T10:37:08.665Z,3.35
2019-06-01T10:39:37.275Z,3.02
2019-06-01T10:42:07.472Z,3.40
2019-06-01T10:44:43.445Z,3.20
2019-06-01T10:47:09.133Z,3.62
2019-06-01T10:49:38.143Z,3.30
2019-06-01T10:52:06.772Z,3.22
2019-06-01T10:54:36.177Z,3.30
2019-06-01T10:57:04.820Z,3.10
2019-06-01T10:59:34.292Z,2.58
2019-06-01T11:02:03.068Z,2.30
2019-06-01T11:04:32.767Z,3.12
2019-06-01T11:07:02.401Z,2.87
2019-06-01T11:09:32.942Z,2.30
2019-06-01T11:12:02.384Z,2.83
2019-06-01T11:14:31.224Z,3.00
2019-06-01T11:17:00.116Z,2.58
2019-06-01T11:19:30.492Z,2.95
2019-06-01T11:21:59.302Z,2.67
2019-06-01T11:24:28.081Z,2.47
2019-06-01T11:26:56.784Z,2.58
2019-06-01T11:29:25.492Z,2.80
2019-06-01T11:31:54.732Z,2.85
2019-06-01T11:37:04.590Z,2.37
2019-06-01T11:39:23.027Z,2.85
2019-06-01T11:41:51.603Z,3.10
2019-06-01T11:44:22.136Z,2.70
2019-06-01T11:49:21.478Z,2.33
2019-06-01T11:51:50.142Z,2.17
2019-06-01T11:54:18.664Z,2.37
2019-06-01T11:56:47.117Z,1.90
2019-06-01T11:59:16.065Z,2.80
2019-06-01T12:01:45.873Z,2.30
2019-06-01T12:04:15.454Z,2.50
2019-06-01T12:06:44.289Z,2.80
2019-06-01T12:09:13.345Z,2.10
2019-06-01T12:11:42.341Z,2.17
2019-06-01T12:14:11.291Z,2.10
2019-06-01T12:16:40.412Z,2.22
2019-06-01T12:19:08.934Z,2.17
2019-06-01T12:21:38.828Z,2.47
2019-06-01T12:26:35.622Z,2.80
2019-06-01T12:29:04.314Z,2.77
2019-06-01T12:31:33.340Z,2.83
2019-06-01T12:34:02.246Z,3.33
2019-06-01T12:36:32.161Z,2.92
2019-06-01T12:39:01.536Z,2.70
2019-06-01T12:41:30.462Z,2.95
2019-06-01T12:44:11.374Z,2.67
2019-06-01T12:46:42.240Z,2.75
2019-06-01T12:49:12.579Z,3.27
2019-06-01T12:51:42.528Z,3.05
2019-06-01T12:54:11.196Z,3.30
2019-06-01T12:56:40.698Z,4.58
2019-06-01T12:59:09.620Z,2.58
2019-06-01T13:01:38.470Z,2.47
2019-06-01T13:04:06.851Z,2.08
2019-06-01T13:06:35.530Z,2.33
2019-06-01T13:09:07.557Z,1.77
2019-06-01T13:11:36.403Z,2.58
2019-06-01T13:14:05.237Z,2.27
2019-06-01T13:16:33.751Z,2.27
2019-06-01T13:19:02.362Z,1.80
2019-06-01T13:21:31.037Z,1.80
2019-06-01T13:23:59.717Z,1.80
2019-06-01T13:26:28.451Z,1.60
2019-06-01T13:28:57.222Z,1.87
2019-06-01T13:31:25.580Z,1.57
2019-06-01T13:33:54.172Z,1.57
2019-06-01T13:36:22.852Z,1.70
2019-06-01T13:38:53.015Z,1.47
2019-06-01T13:41:21.779Z,1.67
2019-06-01T13:43:51.434Z,1.20
2019-06-01T13:46:20.021Z,1.55
2019-06-01T13:48:50.258Z,1.32
2019-06-01T13:51:20.799Z,1.55
2019-06-01T13:53:50.450Z,1.67
2019-06-01T13:56:19.413Z,1.50
2019-06-01T13:58:48.247Z,1.60
2019-06-01T14:01:16.900Z,1.65
2019-06-01T14:03:45.464Z,1.70
2019-06-01T14:06:14.486Z,2.25
2019-06-01T14:08:43.460Z,1.70
2019-06-01T14:11:12.455Z,2.33
2019-06-01T14:13:40.873Z,2.00
2019-06-01T14:16:09.518Z,1.85
2019-06-01T14:18:38.503Z,2.12
2019-06-01T14:21:07.217Z,2.00
2019-06-01T14:23:35.886Z,1.65
2019-06-01T14:26:05.178Z,1.60
2019-06-01T14:28:33.852Z,1.60
2019-06-01T14:31:02.590Z,2.20
2019-06-01T14:33:31.277Z,2.15
2019-06-01T14:35:59.615Z,2.05
2019-06-01T14:38:45.636Z,2.50
2019-06-01T14:41:00.087Z,2.60
2019-06-01T14:43:29.077Z,2.58
2019-06-01T14:45:58.088Z,1.82
2019-06-01T14:48:26.751Z,2.00
2019-06-01T14:50:57.919Z,1.95
2019-06-01T14:53:28.427Z,2.27
2019-06-01T14:55:57.989Z,2.12
2019-06-01T14:58:27.100Z,2.08
2019-06-01T15:00:56.628Z,2.98
2019-06-01T15:03:25.156Z,2.33
2019-06-01T15:05:54.397Z,1.82
2019-06-01T15:08:23.127Z,2.60
2019-06-01T15:10:53.420Z,2.12
2019-06-01T15:13:22.810Z,2.52
2019-06-01T15:15:53.412Z,1.85
2019-06-01T15:20:50.109Z,1.98
2019-06-01T15:23:19.099Z,2.10
2019-06-01T15:25:47.799Z,2.47
2019-06-01T15:28:16.637Z,2.02
2019-06-01T15:30:46.223Z,2.30
2019-06-01T15:33:14.873Z,1.82
2019-06-01T15:35:43.208Z,1.77
2019-06-01T15:38:11.856Z,2.12
2019-06-01T15:40:40.276Z,2.22
2019-06-01T15:43:10.430Z,2.00
2019-06-01T15:45:41.254Z,2.08
2019-06-01T15:48:09.699Z,2.22
2019-06-01T15:50:38.700Z,1.92
2019-06-01T15:53:09.329Z,2.30
2019-06-01T15:55:39.667Z,1.80
2019-06-01T15:58:08.111Z,2.27
2019-06-01T16:00:36.816Z,4.95
2019-06-01T16:03:05.459Z,1.82
2019-06-01T16:05:33.842Z,2.15
2019-06-01T16:08:03.684Z,1.72
2019-06-01T16:10:32.110Z,2.50
2019-06-01T16:13:04.303Z,1.90
2019-06-01T16:15:33.189Z,1.75
2019-06-01T16:18:02.424Z,1.98
2019-06-01T16:20:30.882Z,2.10
2019-06-01T16:23:00.303Z,2.22
2019-06-01T16:25:30.246Z,2.10
2019-06-01T16:27:58.830Z,2.05
2019-06-01T16:30:27.464Z,2.98
2019-06-01T16:32:56.468Z,1.98
2019-06-01T16:35:25.207Z,1.75
2019-06-01T16:37:54.928Z,2.25
2019-06-01T16:40:23.535Z,1.80
2019-06-01T16:42:51.925Z,2.10
2019-06-01T16:45:21.020Z,1.52
2019-06-01T16:47:49.847Z,2.12
2019-06-01T16:50:18.216Z,1.98
2019-06-01T16:52:46.683Z,1.82
2019-06-01T16:55:17.111Z,1.87
2019-06-01T16:57:47.970Z,2.15
2019-06-01T17:00:18.102Z,1.70
2019-06-01T17:05:16.281Z,2.12
2019-06-01T17:07:45.207Z,2.00
2019-06-01T17:10:25.495Z,1.98
2019-06-01T17:12:45.727Z,1.87
2019-06-01T17:15:15.465Z,2.95
2019-06-01T17:17:43.949Z,2.12
2019-06-01T17:20:46.192Z,2.20
2019-06-01T17:23:27.448Z,2.00
2019-06-01T17:25:45.233Z,1.98
2019-06-01T17:28:13.897Z,2.08
2019-06-01T17:30:42.786Z,2.60
2019-06-01T17:33:11.336Z,2.17
2019-06-01T17:35:40.379Z,2.47
2019-06-01T17:38:09.271Z,2.15
2019-06-01T17:40:42.296Z,1.70
2019-06-01T17:43:08.929Z,2.15
2019-06-01T17:45:38.916Z,2.72
2019-06-01T17:48:23.470Z,2.70
2019-06-01T17:50:38.594Z,2.27
2019-06-01T17:53:08.701Z,2.37
2019-06-01T17:55:39.824Z,2.50
2019-06-01T17:58:11.770Z,2.62
2019-06-01T18:00:41.057Z,2.47
2019-06-01T18:03:10.246Z,2.10
2019-06-01T18:05:39.479Z,2.93
2019-06-01T18:08:08.261Z,2.40
2019-06-01T18:10:52.654Z,2.60
2019-06-01T18:13:10.165Z,2.40
2019-06-01T18:15:39.315Z,2.27
2019-06-01T18:18:08.774Z,3.22
2019-06-01T18:20:37.997Z,2.72
2019-06-01T18:23:08.330Z,2.90
2019-06-01T18:25:37.785Z,2.40
2019-06-01T18:28:13.225Z,3.12
2019-06-01T18:30:38.205Z,2.83
2019-06-01T18:33:07.233Z,3.27
2019-06-01T18:35:35.887Z,3.27
2019-06-01T18:38:05.773Z,3.10
2019-06-01T18:40:35.299Z,2.67
2019-06-01T18:43:10.066Z,2.47
2019-06-01T18:45:40.252Z,2.55
2019-06-01T18:48:10.179Z,2.80
2019-06-01T18:50:39.183Z,3.15
2019-06-01T18:53:08.185Z,2.80
2019-06-01T18:55:38.067Z,3.15
2019-06-01T18:58:10.257Z,2.80
2019-06-01T19:03:09.268Z,3.33
2019-06-01T19:05:37.694Z,3.30
2019-06-01T19:08:07.201Z,3.10
2019-06-01T19:10:35.992Z,3.22
2019-06-01T19:13:05.650Z,3.60
2019-06-01T19:15:36.422Z,4.05
2019-06-01T19:18:06.335Z,3.60
2019-06-01T19:20:35.043Z,3.58
2019-06-01T19:23:04.069Z,4.17
2019-06-01T19:25:32.622Z,3.22
2019-06-01T19:28:02.903Z,4.37
2019-06-01T19:33:15.342Z,5.00
2019-06-01T19:35:42.277Z,4.60
2019-06-01T19:38:11.428Z,4.65
2019-06-01T19:40:41.230Z,4.65
2019-06-01T19:43:11.514Z,4.47
2019-06-01T19:45:41.355Z,4.30
2019-06-01T19:48:11.875Z,4.55
2019-06-01T19:50:41.005Z,4.78
2019-06-01T19:53:10.608Z,4.60
2019-06-01T19:55:39.137Z,4.67
2019-06-01T19:58:10.012Z,4.50
2019-06-01T20:00:40.676Z,4.72
2019-06-01T20:03:10.265Z,5.15
2019-06-01T20:05:38.997Z,4.90
2019-06-01T20:08:07.634Z,5.83
2019-06-01T20:10:36.344Z,4.95
2019-06-01T20:13:05.050Z,5.35
2019-06-01T20:15:33.455Z,5.47
2019-06-01T20:18:02.615Z,5.37
2019-06-01T20:20:31.485Z,4.72
2019-06-01T20:23:00.110Z,4.45
2019-06-01T20:25:29.450Z,4.80
2019-06-01T20:27:58.092Z,4.75
2019-06-01T20:30:26.502Z,4.40
2019-06-01T20:32:55.152Z,5.53
2019-06-01T20:35:23.532Z,5.08
2019-06-01T20:37:52.537Z,4.62
2019-06-01T20:40:20.955Z,4.97
2019-06-01T20:42:49.924Z,6.40
2019-06-01T20:45:20.868Z,5.97
2019-06-01T20:47:50.353Z,5.67
2019-06-01T20:50:19.096Z,5.87
2019-06-01T20:52:47.712Z,5.67
2019-06-01T20:55:21.132Z,6.30
2019-06-01T20:57:49.959Z,6.30
2019-06-01T21:02:51.985Z,5.95
2019-06-01T21:05:21.995Z,8.87
2019-06-01T21:07:50.684Z,10.15
2019-06-01T21:10:20.462Z,9.40
2019-06-01T21:12:49.491Z,10.72
2019-06-01T21:15:19.272Z,10.00
2019-06-01T21:17:50.182Z,11.33
2019-06-01T21:20:25.388Z,11.18
2019-06-01T21:22:49.825Z,10.72
2019-06-01T21:25:18.857Z,10.98
2019-06-01T21:27:47.764Z,10.08
2019-06-01T21:30:18.325Z,10.50
2019-06-01T21:32:46.978Z,10.32
2019-06-01T21:35:17.359Z,10.68
2019-06-01T21:37:45.994Z,11.33
2019-06-01T21:40:15.330Z,10.28
2019-06-01T21:43:00.459Z,10.93
2019-06-01T21:45:15.529Z,10.18
2019-06-01T21:47:44.319Z,10.23
2019-06-01T21:50:16.524Z,11.05
2019-06-01T21:52:46.643Z,11.08
2019-06-01T21:55:16.003Z,11.35
2019-06-01T21:57:45.011Z,11.18
2019-06-01T22:00:24.654Z,10.58
2019-06-01T22:02:55.193Z,11.55
2019-06-01T22:05:25.275Z,10.20
2019-06-01T22:07:54.093Z,11.63
2019-06-01T22:10:23.245Z,9.98
2019-06-01T22:12:51.793Z,12.23
2019-06-01T22:15:21.550Z,10.43
2019-06-01T22:17:50.082Z,11.73
2019-06-01T22:20:19.811Z,11.05
2019-06-01T22:22:48.386Z,11.03
2019-06-01T22:25:17.774Z,11.83
2019-06-01T22:27:46.965Z,11.68
2019-06-01T22:30:18.320Z,11.75
2019-06-01T22:32:47.436Z,11.30
2019-06-01T22:35:16.439Z,11.95
2019-06-01T22:37:45.158Z,11.22
2019-06-01T22:40:14.204Z,11.80
2019-06-01T22:42:43.105Z,11.43
2019-06-01T22:45:12.149Z,12.43
2019-06-01T22:47:40.810Z,11.57
2019-06-01T22:50:10.709Z,13.30
2019-06-01T22:52:40.277Z,12.25
2019-06-01T22:55:09.499Z,12.95
2019-06-01T22:57:38.249Z,11.40
2019-06-01T23:00:07.590Z,12.40
2019-06-01T23:02:36.582Z,12.13
2019-06-01T23:05:07.357Z,11.53
2019-06-01T23:07:36.394Z,13.40
2019-06-01T23:10:05.383Z,13.15
2019-06-01T23:12:34.109Z,14.55
2019-06-01T23:15:02.777Z,13.15
2019-06-01T23:17:32.019Z,13.55
2019-06-01T23:20:00.780Z,13.32
2019-06-01T23:22:30.736Z,14.35
2019-06-01T23:24:59.367Z,13.25
2019-06-01T23:27:28.323Z,14.15
2019-06-01T23:29:57.040Z,14.05
2019-06-01T23:32:26.505Z,13.75
2019-06-01T23:34:54.991Z,14.68
2019-06-01T23:37:24.645Z,14.55
2019-06-01T23:39:53.344Z,13.67
2019-06-01T23:42:22.545Z,13.50
2019-06-01T23:44:51.978Z,15.45
2019-06-01T23:47:20.608Z,14.30
2019-06-01T23:49:48.863Z,15.60
2019-06-01T23:52:17.489Z,14.20
2019-06-01T23:54:46.686Z,15.08
2019-06-01T23:57:15.170Z,14.50
2019-06-01T23:59:43.766Z,14.13
